createdAt,value
2022-11-17T00:02:40.106Z,14.57
2022-11-17T00:05:43.757Z,14.57
2022-11-17T00:08:46.935Z,14.18
2022-11-17T00:12:08.502Z,14.38
2022-11-17T00:15:11.496Z,13.68
2022-11-17T00:18:32.810Z,12.80
2022-11-17T00:21:35.729Z,13.93
2022-11-17T00:24:38.637Z,14.07
2022-11-17T00:27:41.550Z,11.98
2022-11-17T00:31:03.150Z,12.70
2022-11-17T00:34:06.236Z,13.00
2022-11-17T00:37:09.644Z,11.45
2022-11-17T00:40:13.357Z,12.55
2022-11-17T00:43:16.242Z,12.82
2022-11-17T00:46:19.124Z,12.88
2022-11-17T00:49:25.164Z,13.20
2022-11-17T00:52:28.077Z,13.65
2022-11-17T00:55:31.048Z,12.85
2022-11-17T00:58:35.513Z,13.50
2022-11-17T01:01:38.548Z,13.07
2022-11-17T01:04:41.444Z,12.13
2022-11-17T01:07:44.389Z,14.05
2022-11-17T01:10:47.264Z,13.32
2022-11-17T01:13:50.179Z,14.10
2022-11-17T01:16:53.284Z,12.80
2022-11-17T01:19:56.155Z,12.93
2022-11-17T01:22:59.044Z,14.27
2022-11-17T01:26:06.391Z,13.55
2022-11-17T01:29:10.474Z,12.95
2022-11-17T01:32:13.414Z,12.52
2022-11-17T01:35:16.339Z,12.80
2022-11-17T01:38:19.229Z,12.30
2022-11-17T01:41:26.623Z,13.00
2022-11-17T01:44:51.552Z,12.85
2022-11-17T01:48:01.377Z,12.43
2022-11-17T01:51:04.537Z,12.27
2022-11-17T01:54:07.631Z,13.35
2022-11-17T01:57:17.310Z,11.75
2022-11-17T02:00:20.295Z,12.27
2022-11-17T02:03:23.186Z,12.52
2022-11-17T02:06:33.064Z,12.23
2022-11-17T02:09:37.410Z,13.60
2022-11-17T02:12:40.296Z,13.75
2022-11-17T02:15:43.240Z,13.13
2022-11-17T02:18:46.558Z,13.77
2022-11-17T02:21:55.576Z,14.90
2022-11-17T02:25:01.542Z,13.80
2022-11-17T02:28:37.700Z,15.38
2022-11-17T02:32:11.400Z,13.60
2022-11-17T02:35:45.163Z,14.57
2022-11-17T02:39:00.666Z,14.13
2022-11-17T02:42:21.465Z,13.85
2022-11-17T02:45:37.430Z,14.52
2022-11-17T02:48:41.933Z,14.38
2022-11-17T02:51:44.864Z,14.93
2022-11-17T02:54:47.755Z,13.80
2022-11-17T02:57:50.722Z,14.57
2022-11-17T03:01:05.608Z,15.60
2022-11-17T03:04:17.575Z,12.82
2022-11-17T03:07:51.393Z,13.90
2022-11-17T03:11:05.408Z,13.27
2022-11-17T03:14:31.286Z,12.85
2022-11-17T03:17:52.577Z,12.73
2022-11-17T03:21:11.043Z,13.48
2022-11-17T03:24:18.401Z,13.23
2022-11-17T03:27:29.503Z,12.53
2022-11-17T03:30:37.314Z,15.15
2022-11-17T03:33:40.670Z,14.98
2022-11-17T03:36:46.679Z,14.43
2022-11-17T03:39:51.807Z,13.55
2022-11-17T03:42:57.015Z,13.80
2022-11-17T03:46:03.331Z,13.40
2022-11-17T03:49:23.401Z,13.18
2022-11-17T03:52:26.713Z,12.50
2022-11-17T03:55:58.304Z,13.55
2022-11-17T03:59:05.324Z,14.77
2022-11-17T04:02:08.245Z,13.05
2022-11-17T04:05:11.828Z,14.07
2022-11-17T04:08:14.725Z,14.38
2022-11-17T04:11:36.397Z,14.52
2022-11-17T04:15:05.638Z,15.10
2022-11-17T04:18:08.930Z,14.35
2022-11-17T04:21:11.878Z,13.93
2022-11-17T04:24:14.819Z,13.82
2022-11-17T04:27:36.338Z,14.15
2022-11-17T04:30:39.203Z,14.70
2022-11-17T04:33:46.950Z,14.60
2022-11-17T04:36:50.891Z,13.93
2022-11-17T04:39:53.828Z,14.38
2022-11-17T04:42:56.714Z,15.13
2022-11-17T04:46:00.636Z,15.17
2022-11-17T04:49:03.758Z,15.43
2022-11-17T04:52:06.853Z,16.75
2022-11-17T04:55:10.073Z,16.15
2022-11-17T04:58:13.077Z,16.00
2022-11-17T05:01:17.521Z,17.10
2022-11-17T05:04:39.722Z,17.00
2022-11-17T05:07:43.132Z,15.50
2022-11-17T05:11:04.796Z,16.77
2022-11-17T05:14:07.934Z,17.58
2022-11-17T05:17:11.930Z,17.40
2022-11-17T05:20:17.606Z,17.23
2022-11-17T05:23:39.333Z,16.30
2022-11-17T05:26:43.115Z,15.73
2022-11-17T05:29:46.049Z,14.98
2022-11-17T05:32:48.980Z,14.10
2022-11-17T05:35:51.891Z,16.63
2022-11-17T05:38:55.088Z,14.77
2022-11-17T05:41:57.996Z,14.57
2022-11-17T05:45:00.882Z,14.50
2022-11-17T05:48:03.924Z,13.70
2022-11-17T05:51:07.010Z,13.93
2022-11-17T05:54:09.993Z,13.48
2022-11-17T05:57:15.246Z,14.85
2022-11-17T06:00:18.263Z,16.23
2022-11-17T06:03:26.671Z,19.43
2022-11-17T06:06:29.706Z,17.13
2022-11-17T06:09:34.008Z,17.35
2022-11-17T06:12:36.890Z,15.35
2022-11-17T06:15:39.813Z,15.52
2022-11-17T06:18:49.094Z,14.47
2022-11-17T06:22:11.014Z,14.85
2022-11-17T06:25:15.044Z,14.68
2022-11-17T06:28:18.504Z,16.40
2022-11-17T06:31:21.440Z,14.90
2022-11-17T06:34:25.918Z,14.37
2022-11-17T06:37:29.165Z,15.00
2022-11-17T06:40:34.904Z,19.60
2022-11-17T06:43:38.130Z,14.88
2022-11-17T06:46:46.158Z,15.32
2022-11-17T06:49:52.048Z,14.97
2022-11-17T06:53:08.493Z,15.93
2022-11-17T06:56:11.911Z,14.63
2022-11-17T06:59:16.161Z,14.20
2022-11-17T07:02:19.319Z,15.13
2022-11-17T07:05:22.306Z,14.57
2022-11-17T07:08:25.320Z,14.00
2022-11-17T07:11:28.296Z,13.90
2022-11-17T07:14:31.248Z,13.48
2022-11-17T07:17:34.281Z,13.68
2022-11-17T07:20:37.265Z,13.73
2022-11-17T07:23:40.949Z,13.65
2022-11-17T07:26:43.870Z,13.73
2022-11-17T07:29:46.884Z,13.82
2022-11-17T07:32:54.525Z,13.18
2022-11-17T07:36:05.781Z,13.97
2022-11-17T07:39:08.829Z,12.35
2022-11-17T07:42:11.861Z,12.88
2022-11-17T07:45:14.913Z,12.95
2022-11-17T07:48:17.999Z,11.45
2022-11-17T07:51:21.364Z,11.97
2022-11-17T07:54:24.303Z,11.00
2022-11-17T07:57:28.777Z,12.50
2022-11-17T08:00:33.602Z,12.23
2022-11-17T08:03:36.925Z,13.75
2022-11-17T08:06:39.915Z,13.13
2022-11-17T08:09:42.917Z,13.90
2022-11-17T08:12:45.850Z,13.65
2022-11-17T08:15:48.874Z,13.77
2022-11-17T08:18:52.805Z,13.52
2022-11-17T08:21:55.952Z,15.00
2022-11-17T08:24:58.929Z,13.30
2022-11-17T08:28:01.910Z,13.52
2022-11-17T08:31:05.821Z,15.00
2022-11-17T08:34:08.766Z,14.55
2022-11-17T08:37:11.767Z,14.53
2022-11-17T08:40:15.059Z,14.35
2022-11-17T08:43:18.077Z,13.35
2022-11-17T08:46:21.090Z,13.13
2022-11-17T08:49:24.118Z,14.40
2022-11-17T08:52:29.764Z,14.60
2022-11-17T08:55:40.764Z,13.77
2022-11-17T08:58:44.824Z,13.43
2022-11-17T09:01:47.916Z,13.07
2022-11-17T09:04:51.118Z,12.68
2022-11-17T09:07:54.430Z,12.93
2022-11-17T09:10:57.909Z,12.40
2022-11-17T09:14:00.939Z,12.20
2022-11-17T09:17:04.083Z,11.55
2022-11-17T09:20:07.599Z,11.20
2022-11-17T09:23:10.576Z,11.67
2022-11-17T09:26:14.743Z,11.13
2022-11-17T09:29:17.827Z,10.60
2022-11-17T09:32:20.898Z,11.98
2022-11-17T09:35:23.889Z,11.13
2022-11-17T09:38:26.878Z,9.97
2022-11-17T09:41:54.665Z,9.80
2022-11-17T09:45:01.140Z,10.93
2022-11-17T09:48:45.510Z,10.30
2022-11-17T09:51:48.634Z,10.02
2022-11-17T09:54:57.019Z,10.67
2022-11-17T09:58:39.162Z,10.13
2022-11-17T10:01:42.697Z,9.70
2022-11-17T10:04:45.965Z,8.68
2022-11-17T10:07:51.350Z,8.48
2022-11-17T10:10:54.311Z,8.83
2022-11-17T10:14:10.847Z,7.97
2022-11-17T10:17:13.959Z,9.52
2022-11-17T10:20:18.826Z,9.50
2022-11-17T10:23:24.690Z,9.50
2022-11-17T10:26:28.201Z,8.17
2022-11-17T10:29:31.335Z,8.10
2022-11-17T10:32:42.681Z,7.53
2022-11-17T10:35:55.114Z,7.90
2022-11-17T10:38:59.484Z,7.78
2022-11-17T10:42:03.769Z,7.30
2022-11-17T10:45:13.123Z,7.00
2022-11-17T10:48:22.143Z,6.72
2022-11-17T10:51:26.815Z,6.53
2022-11-17T10:54:29.858Z,6.25
2022-11-17T10:57:32.896Z,6.13
2022-11-17T11:00:36.555Z,6.60
2022-11-17T11:03:39.574Z,6.95
2022-11-17T11:06:45.167Z,6.90
2022-11-17T11:10:03.172Z,7.00
2022-11-17T11:13:32.671Z,6.77
2022-11-17T11:16:35.851Z,5.53
2022-11-17T11:19:38.973Z,5.78
2022-11-17T11:22:57.914Z,5.65
2022-11-17T11:26:28.044Z,6.00
2022-11-17T11:29:39.885Z,5.60
2022-11-17T11:33:15.057Z,6.05
2022-11-17T11:36:32.223Z,6.18
2022-11-17T11:39:53.979Z,6.53
2022-11-17T11:43:00.413Z,6.53
2022-11-17T11:46:21.627Z,6.43
2022-11-17T11:49:50.728Z,6.40
2022-11-17T11:53:25.657Z,5.22
2022-11-17T11:56:36.665Z,6.47
2022-11-17T11:59:45.334Z,5.70
2022-11-17T12:03:18.803Z,6.67
2022-11-17T12:06:41.275Z,6.03
2022-11-17T12:10:20.272Z,7.20
2022-11-17T12:13:23.243Z,6.22
2022-11-17T12:16:35.812Z,6.70
2022-11-17T12:19:50.337Z,6.10
2022-11-17T12:23:09.610Z,6.03
2022-11-17T12:26:41.693Z,6.18
2022-11-17T12:29:47.889Z,5.93
2022-11-17T12:32:54.242Z,6.22
2022-11-17T12:36:31.132Z,6.47
2022-11-17T12:40:03.045Z,5.85
2022-11-17T12:43:20.919Z,6.38
2022-11-17T12:46:26.716Z,6.78
2022-11-17T12:49:34.752Z,6.32
2022-11-17T12:52:59.405Z,6.40
2022-11-17T12:56:31.661Z,6.13
2022-11-17T12:59:45.971Z,6.53
2022-11-17T13:03:04.796Z,6.18
2022-11-17T13:06:33.757Z,6.45
2022-11-17T13:09:36.388Z,6.13
2022-11-17T13:12:39.382Z,6.57
2022-11-17T13:15:42.776Z,6.00
2022-11-17T13:18:45.867Z,6.05
2022-11-17T13:21:48.879Z,6.20
2022-11-17T13:24:53.842Z,6.10
2022-11-17T13:28:03.114Z,5.68
2022-11-17T13:31:17.521Z,6.38
2022-11-17T13:34:23.631Z,6.53
2022-11-17T13:37:27.861Z,6.50
2022-11-17T13:40:31.020Z,6.57
2022-11-17T13:43:39.134Z,6.63
2022-11-17T13:46:42.165Z,10.75
2022-11-17T13:49:45.365Z,7.20
2022-11-17T13:52:52.493Z,7.50
2022-11-17T13:55:55.535Z,7.47
2022-11-17T13:58:59.325Z,7.43
2022-11-17T14:02:20.281Z,7.03
2022-11-17T14:05:24.298Z,7.68
2022-11-17T14:08:32.052Z,8.15
2022-11-17T14:11:35.001Z,7.43
2022-11-17T14:14:44.986Z,7.82
2022-11-17T14:17:54.799Z,7.55
2022-11-17T14:21:17.277Z,9.25
2022-11-17T14:24:20.261Z,9.75
2022-11-17T14:27:32.204Z,9.10
2022-11-17T14:30:35.240Z,9.63
2022-11-17T14:33:38.221Z,11.27
2022-11-17T14:36:41.207Z,11.40
2022-11-17T14:39:44.220Z,12.75
2022-11-17T14:42:47.189Z,12.40
2022-11-17T14:45:50.740Z,12.40
2022-11-17T14:48:53.912Z,12.60
2022-11-17T14:51:59.166Z,11.43
2022-11-17T14:55:02.451Z,11.60
2022-11-17T14:58:05.397Z,14.53
2022-11-17T15:01:09.988Z,12.82
2022-11-17T15:04:42.750Z,14.57
2022-11-17T15:07:36.902Z,13.52
2022-11-17T15:10:44.405Z,12.40
2022-11-17T15:13:47.355Z,12.10
2022-11-17T15:16:50.338Z,12.30
2022-11-17T15:19:53.638Z,13.50
2022-11-17T15:23:01.861Z,13.35
2022-11-17T15:26:16.357Z,15.20
2022-11-17T15:29:19.431Z,15.47
2022-11-17T15:32:22.413Z,21.55
2022-11-17T15:35:25.340Z,19.70
2022-11-17T15:38:28.945Z,25.23
2022-11-17T15:41:33.156Z,27.73
2022-11-17T15:44:36.479Z,31.30
2022-11-17T15:47:39.465Z,37.03
2022-11-17T15:50:42.403Z,34.60
2022-11-17T15:53:46.604Z,35.72
2022-11-17T15:56:50.850Z,35.75
2022-11-17T15:59:53.917Z,41.03
2022-11-17T16:02:58.737Z,52.38
2022-11-17T16:06:01.942Z,44.97
2022-11-17T16:09:06.602Z,42.67
2022-11-17T16:12:09.685Z,33.10
2022-11-17T16:15:12.706Z,43.30
2022-11-17T16:18:15.784Z,45.55
2022-11-17T16:21:18.829Z,35.35
2022-11-17T16:24:21.857Z,38.15
2022-11-17T16:27:24.797Z,41.65
2022-11-17T16:30:32.727Z,47.03
2022-11-17T16:33:37.964Z,52.90
2022-11-17T16:36:41.709Z,56.53
2022-11-17T16:39:44.658Z,57.90
2022-11-17T16:42:47.630Z,50.92
2022-11-17T16:45:50.653Z,48.70
2022-11-17T16:48:53.781Z,50.72
2022-11-17T16:51:56.762Z,48.97
2022-11-17T16:55:04.625Z,47.17
2022-11-17T16:58:09.339Z,55.85
2022-11-17T17:01:17.121Z,58.30
2022-11-17T17:04:20.137Z,126.68
2022-11-17T17:07:23.164Z,94.93
2022-11-17T17:10:26.241Z,67.63
2022-11-17T17:13:29.209Z,54.67
2022-11-17T17:16:33.171Z,66.97
2022-11-17T17:19:36.126Z,54.65
2022-11-17T17:22:39.070Z,56.65
2022-11-17T17:25:42.033Z,51.28
2022-11-17T17:28:46.160Z,40.42
2022-11-17T17:31:49.141Z,41.77
2022-11-17T17:34:52.082Z,34.42
2022-11-17T17:37:55.002Z,30.40
2022-11-17T17:41:04.230Z,31.52
2022-11-17T17:44:07.758Z,31.92
2022-11-17T17:47:10.694Z,27.07
2022-11-17T17:50:13.716Z,28.00
2022-11-17T17:53:16.677Z,33.35
2022-11-17T17:56:20.413Z,32.17
2022-11-17T17:59:23.790Z,25.45
2022-11-17T18:02:26.701Z,26.17
2022-11-17T18:05:31.377Z,33.47
2022-11-17T18:08:35.706Z,42.33
2022-11-17T18:11:45.732Z,40.85
2022-11-17T18:14:48.824Z,41.15
2022-11-17T18:17:51.810Z,40.67
2022-11-17T18:21:08.048Z,37.25
2022-11-17T18:24:11.557Z,48.53
2022-11-17T18:27:14.516Z,45.65
2022-11-17T18:30:27.873Z,40.47
2022-11-17T18:33:30.871Z,44.87
2022-11-17T18:36:35.101Z,43.90
2022-11-17T18:39:38.293Z,49.38
2022-11-17T18:42:41.410Z,51.20
2022-11-17T18:45:44.722Z,49.78
2022-11-17T18:48:48.698Z,50.23
2022-11-17T18:51:51.674Z,45.38
2022-11-17T18:54:54.629Z,44.88
2022-11-17T18:57:57.889Z,43.75
2022-11-17T19:01:07.948Z,39.35
2022-11-17T19:04:14.101Z,40.17
2022-11-17T19:07:17.129Z,39.67
2022-11-17T19:10:20.496Z,39.67
2022-11-17T19:13:23.647Z,46.28
2022-11-17T19:16:29.519Z,42.03
2022-11-17T19:19:32.528Z,34.83
2022-11-17T19:22:35.598Z,37.13
2022-11-17T19:25:39.493Z,35.80
2022-11-17T19:28:42.644Z,34.17
2022-11-17T19:31:46.072Z,35.70
2022-11-17T19:34:51.869Z,34.40
2022-11-17T19:37:58.376Z,36.92
2022-11-17T19:41:05.347Z,37.28
2022-11-17T19:44:08.873Z,32.63
2022-11-17T19:47:11.857Z,32.35
2022-11-17T19:50:15.278Z,32.47
2022-11-17T19:53:18.484Z,30.15
2022-11-17T19:56:22.076Z,40.47
2022-11-17T19:59:25.073Z,37.85
2022-11-17T20:02:28.043Z,35.92
2022-11-17T20:05:33.764Z,38.27
2022-11-17T20:08:36.724Z,34.88
2022-11-17T20:11:39.844Z,28.88
2022-11-17T20:14:42.814Z,26.65
2022-11-17T20:17:45.745Z,27.80
2022-11-17T20:20:48.689Z,28.80
2022-11-17T20:23:51.717Z,30.33
2022-11-17T20:26:54.724Z,27.33
2022-11-17T20:29:57.719Z,22.75
2022-11-17T20:33:00.670Z,22.17
2022-11-17T20:36:03.737Z,23.57
2022-11-17T20:39:07.653Z,22.30
2022-11-17T20:42:10.606Z,21.13
2022-11-17T20:45:13.650Z,22.30
2022-11-17T20:48:16.575Z,23.08
2022-11-17T20:51:20.647Z,20.60
2022-11-17T20:54:23.604Z,23.42
2022-11-17T20:57:26.681Z,23.42
2022-11-17T21:00:30.388Z,23.67
2022-11-17T21:03:33.375Z,25.58
2022-11-17T21:06:36.312Z,26.23
2022-11-17T21:09:39.315Z,25.52
2022-11-17T21:12:42.642Z,24.52
2022-11-17T21:15:47.008Z,23.50
2022-11-17T21:18:50.034Z,23.83
2022-11-17T21:21:55.802Z,20.73
2022-11-17T21:24:58.737Z,22.70
2022-11-17T21:28:01.666Z,21.92
2022-11-17T21:31:12.211Z,21.90
2022-11-17T21:34:16.721Z,22.33
2022-11-17T21:37:20.238Z,22.97
2022-11-17T21:40:23.449Z,23.17
2022-11-17T21:43:26.390Z,23.77
2022-11-17T21:46:31.636Z,23.05
2022-11-17T21:49:34.781Z,20.80
2022-11-17T21:52:37.786Z,21.83
2022-11-17T21:55:41.970Z,22.98
2022-11-17T21:58:44.958Z,21.98
2022-11-17T22:01:47.944Z,21.48
2022-11-17T22:04:50.912Z,21.08
2022-11-17T22:07:53.888Z,21.90
2022-11-17T22:10:56.860Z,22.65
2022-11-17T22:13:59.794Z,22.00
2022-11-17T22:17:02.997Z,23.27
2022-11-17T22:20:06.554Z,24.25
2022-11-17T22:23:09.528Z,23.83
2022-11-17T22:26:12.491Z,27.33
2022-11-17T22:29:17.480Z,28.85
2022-11-17T22:32:20.863Z,29.25
2022-11-17T22:35:23.788Z,30.77
2022-11-17T22:38:29.330Z,23.80
2022-11-17T22:41:32.268Z,25.80
2022-11-17T22:44:35.185Z,22.65
2022-11-17T22:47:38.913Z,23.50
2022-11-17T22:50:41.954Z,22.90
2022-11-17T22:53:44.931Z,23.63
2022-11-17T22:56:48.070Z,22.95
2022-11-17T22:59:51.429Z,22.15
2022-11-17T23:02:54.402Z,21.25
2022-11-17T23:06:02.347Z,22.27
2022-11-17T23:09:05.314Z,22.33
2022-11-17T23:12:08.306Z,22.92
2022-11-17T23:15:11.351Z,22.15
2022-11-17T23:18:14.320Z,21.77
2022-11-17T23:21:17.292Z,21.17
2022-11-17T23:24:20.238Z,22.80
2022-11-17T23:27:23.266Z,21.27
2022-11-17T23:30:26.276Z,21.80
2022-11-17T23:33:36.069Z,22.23
2022-11-17T23:36:39.068Z,22.70
2022-11-17T23:39:42.033Z,22.80
2022-11-17T23:42:45.205Z,23.48
2022-11-17T23:45:48.567Z,24.65
2022-11-17T23:48:51.623Z,24.35
2022-11-17T23:51:54.552Z,22.60
2022-11-17T23:54:57.551Z,20.93
2022-11-17T23:58:00.534Z,20.38
